Pagina principale
METAR-TAF:

METAR-TAF

Aeroporti :

North Central State Airport

Pawtucket, Rhode Island, Stati Uniti

latitudine: 41-55N, longitudine: 071-30W, altezza: 134 m

Osservazione

Il bollettino è stato emesso 45 minuti fa, alle 21:56 UTC
Vento 8 kt da nord/nord-est
Temperature -1°C
Umidità 86%
Pressione 1012 hPa
Visibilità: 9.7 km
Cielo coperto ad un'altezza di 900 ft
neve debole, foschia

METAR: KSFZ 182156Z AUTO 02008KT 6SM -SN BR OVC009 M01/M03 A2988 RMK AO2 UPE34SNB34 CIG 008V012 SLP067 P0001 T10111028 FZRANO

Ora: 17:41 (22:41 UTC)


TAF: mancante

Osservazioni e previsioni meteorologiche di più di 4000 aeroporti (messaggi METAR e TAF).

Le stazioni disponibili sono rappresentate dai dischi gialli e rossi sulla carta.

Puntare il mouse per vedere il nome della stazione.

Clicca sopra per visualizzare le osservazioni e previsioni meteorologiche.

Per cambiare la mappa : fare clic sui pulsanti verdi con una croce nera per ingrandire, il pulsante verde con un trattino per diminuire, o sulla freccia verde per le mappe adiacenti.


METAR-TAF: